createdAt,value
2019-01-21T00:01:37.705Z,38.83
2019-01-21T00:04:07.628Z,48.20
2019-01-21T00:06:37.357Z,43.60
2019-01-21T00:09:09.200Z,48.10
2019-01-21T00:11:39.036Z,49.80
2019-01-21T00:14:08.868Z,46.40
2019-01-21T00:16:38.525Z,45.10
2019-01-21T00:19:08.223Z,50.73
2019-01-21T00:21:37.877Z,43.63
2019-01-21T00:24:07.598Z,43.10
2019-01-21T00:26:37.351Z,47.37
2019-01-21T00:29:07.093Z,47.10
2019-01-21T00:31:39.175Z,44.00
2019-01-21T00:34:08.909Z,38.50
2019-01-21T00:36:38.635Z,45.60
2019-01-21T00:39:08.897Z,49.80
2019-01-21T00:41:38.589Z,52.37
2019-01-21T00:44:08.235Z,44.97
2019-01-21T00:46:37.947Z,50.70
2019-01-21T00:49:07.601Z,42.83
2019-01-21T00:51:37.244Z,43.83
2019-01-21T00:54:06.895Z,45.10
2019-01-21T00:56:36.583Z,43.43
2019-01-21T00:59:06.404Z,40.47
2019-01-21T01:01:36.050Z,40.93
2019-01-21T01:04:05.734Z,48.10
2019-01-21T01:06:35.398Z,44.47
2019-01-21T01:09:07.683Z,37.37
2019-01-21T01:11:37.333Z,39.00
2019-01-21T01:14:07.051Z,43.93
2019-01-21T01:16:36.740Z,44.40
2019-01-21T01:19:06.371Z,47.37
2019-01-21T01:21:36.055Z,42.40
2019-01-21T01:24:05.701Z,40.60
2019-01-21T01:26:35.396Z,40.17
2019-01-21T01:29:05.067Z,40.90
2019-01-21T01:31:34.792Z,47.60
2019-01-21T01:34:04.485Z,44.10
2019-01-21T01:36:34.154Z,46.13
2019-01-21T01:39:04.423Z,37.43
2019-01-21T01:41:34.059Z,47.00
2019-01-21T01:44:03.781Z,42.30
2019-01-21T01:46:33.581Z,46.27
2019-01-21T01:49:03.524Z,41.20
2019-01-21T01:51:33.147Z,34.97
2019-01-21T01:54:02.852Z,53.40
2019-01-21T01:56:32.482Z,41.40
2019-01-21T01:59:02.163Z,38.30
2019-01-21T02:01:31.823Z,39.70
2019-01-21T02:04:01.487Z,43.57
2019-01-21T02:06:31.131Z,45.93
2019-01-21T02:09:00.855Z,41.10
2019-01-21T02:11:30.602Z,38.80
2019-01-21T02:14:00.250Z,43.10
2019-01-21T02:16:29.919Z,42.60
2019-01-21T02:18:59.607Z,42.43
2019-01-21T02:21:30.311Z,45.93
2019-01-21T02:24:06.117Z,38.20
2019-01-21T02:26:49.340Z,45.80
2019-01-21T02:29:42.571Z,37.67
2019-01-21T02:32:50.895Z,49.20
2019-01-21T02:35:32.802Z,37.47
2019-01-21T02:38:45.745Z,45.00
2019-01-21T02:41:27.868Z,37.33
2019-01-21T02:44:41.231Z,37.53
2019-01-21T02:47:20.095Z,39.33
2019-01-21T02:50:23.826Z,48.43
2019-01-21T02:53:20.297Z,37.57
2019-01-21T02:56:26.076Z,43.00
2019-01-21T02:59:31.413Z,43.40
2019-01-21T03:02:16.182Z,45.70
2019-01-21T03:05:32.326Z,41.70
2019-01-21T03:08:32.446Z,38.50
2019-01-21T03:11:46.328Z,47.20
2019-01-21T03:14:39.229Z,38.00
2019-01-21T03:18:08.055Z,37.83
2019-01-21T03:21:10.609Z,38.57
2019-01-21T03:24:13.069Z,38.70
2019-01-21T03:27:17.361Z,38.50
2019-01-21T03:30:16.674Z,39.60
2019-01-21T03:33:28.625Z,44.80
2019-01-21T03:36:42.349Z,43.53
2019-01-21T03:39:49.019Z,40.73
2019-01-21T03:42:28.468Z,35.53
2019-01-21T03:45:48.590Z,44.10
2019-01-21T03:48:30.035Z,41.20
2019-01-21T03:51:55.761Z,33.50
2019-01-21T03:54:38.999Z,36.07
2019-01-21T03:58:01.297Z,43.03
2019-01-21T04:00:46.812Z,39.63
2019-01-21T04:03:59.192Z,39.37
2019-01-21T04:06:44.069Z,36.63
2019-01-21T04:10:02.459Z,38.50
2019-01-21T04:13:25.019Z,36.00
2019-01-21T04:16:36.145Z,38.23
2019-01-21T04:19:36.418Z,38.87
2019-01-21T04:22:33.652Z,38.03
2019-01-21T04:25:42.488Z,36.70
2019-01-21T04:28:53.928Z,38.87
2019-01-21T04:31:52.375Z,40.53
2019-01-21T04:35:03.015Z,39.93
2019-01-21T04:38:07.682Z,41.57
2019-01-21T04:41:00.514Z,35.33
2019-01-21T04:43:50.327Z,40.10
2019-01-21T04:47:03.017Z,40.13
2019-01-21T04:50:13.664Z,35.37
2019-01-21T04:53:20.499Z,36.03
2019-01-21T04:56:52.659Z,40.27
2019-01-21T05:00:12.510Z,34.03
2019-01-21T05:03:16.956Z,39.43
2019-01-21T05:06:14.039Z,38.30
2019-01-21T05:09:11.983Z,39.20
2019-01-21T05:12:30.614Z,40.87
2019-01-21T05:15:27.318Z,39.53
2019-01-21T05:18:40.989Z,40.03
2019-01-21T05:21:46.703Z,44.27
2019-01-21T05:24:29.816Z,41.23
2019-01-21T05:27:25.799Z,35.87
2019-01-21T05:30:09.125Z,36.27
2019-01-21T05:33:05.715Z,36.90
2019-01-21T05:36:03.600Z,37.03
2019-01-21T05:39:20.409Z,34.23
2019-01-21T05:42:31.167Z,43.70
2019-01-21T05:45:42.507Z,36.57
2019-01-21T05:49:01.155Z,42.73
2019-01-21T05:52:16.858Z,36.50
2019-01-21T05:55:46.906Z,45.83
2019-01-21T05:58:53.344Z,39.67
2019-01-21T06:02:14.126Z,47.90
2019-01-21T06:05:27.688Z,40.80
2019-01-21T06:08:48.687Z,45.37
2019-01-21T06:11:46.638Z,35.43
2019-01-21T06:15:09.666Z,50.27
2019-01-21T06:18:26.451Z,41.20
2019-01-21T06:21:27.299Z,38.97
2019-01-21T06:24:19.265Z,42.27
2019-01-21T06:27:27.464Z,38.87
2019-01-21T06:30:37.891Z,41.50
2019-01-21T06:33:33.780Z,50.20
2019-01-21T06:36:45.070Z,49.90
2019-01-21T06:39:44.867Z,48.03
2019-01-21T06:42:55.779Z,47.60
2019-01-21T06:46:02.496Z,43.53
2019-01-21T06:49:04.607Z,44.53
2019-01-21T06:52:33.396Z,48.50
2019-01-21T06:55:32.819Z,35.77
2019-01-21T06:58:35.412Z,50.50
2019-01-21T07:01:39.510Z,44.43
2019-01-21T07:04:45.696Z,49.97
2019-01-21T07:07:51.358Z,40.53
2019-01-21T07:10:38.620Z,48.20
2019-01-21T07:13:29.682Z,42.87
2019-01-21T07:16:11.534Z,51.63
2019-01-21T07:19:11.611Z,47.37
2019-01-21T07:22:31.931Z,39.63
2019-01-21T07:25:44.603Z,40.33
2019-01-21T07:28:56.905Z,49.47
2019-01-21T07:31:44.878Z,50.90
2019-01-21T07:34:50.788Z,51.67
2019-01-21T07:37:56.542Z,47.73
2019-01-21T07:41:25.555Z,52.10
2019-01-21T07:44:13.537Z,43.33
2019-01-21T07:47:11.632Z,36.67
2019-01-21T07:50:23.981Z,44.40
2019-01-21T07:53:29.800Z,47.10
2019-01-21T07:56:52.615Z,43.63
2019-01-21T08:00:02.153Z,46.23
2019-01-21T08:03:18.481Z,41.03
2019-01-21T08:06:19.590Z,46.43
2019-01-21T08:09:31.236Z,54.97
2019-01-21T08:12:47.588Z,48.07
2019-01-21T08:15:51.648Z,43.13
2019-01-21T08:19:00.678Z,45.07
2019-01-21T08:22:11.510Z,42.77
2019-01-21T08:25:23.513Z,43.60
2019-01-21T08:28:14.100Z,45.40
2019-01-21T08:31:07.835Z,45.30
2019-01-21T08:34:13.448Z,47.33
2019-01-21T08:37:03.778Z,57.87
2019-01-21T08:40:14.731Z,50.27
2019-01-21T08:43:24.229Z,40.67
2019-01-21T08:46:44.279Z,48.57
2019-01-21T08:49:31.569Z,47.03
2019-01-21T08:52:28.935Z,42.70
2019-01-21T08:55:39.424Z,49.20
2019-01-21T08:58:59.359Z,48.37
2019-01-21T09:02:19.022Z,49.93
2019-01-21T09:05:24.838Z,37.37
2019-01-21T09:08:23.353Z,51.37
2019-01-21T09:11:39.813Z,48.63
2019-01-21T09:14:28.360Z,41.93
2019-01-21T09:17:57.162Z,44.33
2019-01-21T09:21:23.387Z,50.60
2019-01-21T09:24:46.212Z,44.13
2019-01-21T09:27:44.998Z,39.07
2019-01-21T09:31:00.608Z,41.30
2019-01-21T09:34:11.650Z,49.27
2019-01-21T09:37:07.127Z,44.73
2019-01-21T09:40:16.234Z,45.70
2019-01-21T09:43:05.518Z,43.43
2019-01-21T09:46:12.147Z,43.50
2019-01-21T09:48:40.243Z,44.40
2019-01-21T09:51:09.979Z,47.23
2019-01-21T09:53:40.651Z,49.47
2019-01-21T09:56:10.309Z,45.93
2019-01-21T09:58:40.758Z,43.83
2019-01-21T10:01:11.442Z,48.27
2019-01-21T10:03:41.408Z,47.20
2019-01-21T10:06:12.004Z,39.10
2019-01-21T10:09:34.741Z,47.43
2019-01-21T10:12:50.487Z,40.03
2019-01-21T10:16:07.903Z,42.83
2019-01-21T10:19:34.976Z,44.17
2019-01-21T10:22:35.516Z,46.60
2019-01-21T10:25:55.322Z,41.93
2019-01-21T10:29:03.283Z,48.00
2019-01-21T10:32:09.107Z,43.30
2019-01-21T10:35:32.389Z,52.70
2019-01-21T10:38:40.376Z,53.13
2019-01-21T10:41:42.227Z,48.73
2019-01-21T10:44:59.051Z,46.97
2019-01-21T10:47:43.039Z,55.37
2019-01-21T10:50:49.871Z,51.80
2019-01-21T10:53:59.466Z,50.87
2019-01-21T10:57:01.263Z,47.27
2019-01-21T11:00:29.497Z,44.63
2019-01-21T11:03:51.720Z,46.00
2019-01-21T11:06:59.753Z,45.17
2019-01-21T11:09:39.102Z,45.93
2019-01-21T11:12:45.536Z,55.90
2019-01-21T11:15:35.979Z,45.57
2019-01-21T11:18:46.158Z,48.13
2019-01-21T11:21:39.114Z,48.10
2019-01-21T11:24:50.006Z,48.77
2019-01-21T11:27:56.117Z,52.37
2019-01-21T11:31:01.832Z,47.37
2019-01-21T11:34:44.261Z,49.33
2019-01-21T11:38:08.414Z,42.67
2019-01-21T11:41:10.645Z,49.20
2019-01-21T11:44:17.295Z,43.70
2019-01-21T11:47:11.188Z,48.37
2019-01-21T11:49:57.260Z,54.63
2019-01-21T11:53:17.967Z,49.87
2019-01-21T11:56:21.473Z,45.70
2019-01-21T11:59:29.604Z,53.63
2019-01-21T12:02:34.627Z,47.53
2019-01-21T12:05:29.437Z,42.90
2019-01-21T12:08:57.007Z,49.00
2019-01-21T12:11:55.700Z,43.43
2019-01-21T12:14:57.762Z,46.73
2019-01-21T12:17:53.361Z,48.00
2019-01-21T12:20:50.451Z,47.23
2019-01-21T12:23:44.374Z,50.53
2019-01-21T12:26:45.123Z,51.20
2019-01-21T12:29:45.825Z,51.03
2019-01-21T12:33:09.602Z,43.97
2019-01-21T12:36:00.538Z,55.30
2019-01-21T12:39:06.313Z,70.30
2019-01-21T12:42:04.788Z,46.80
2019-01-21T12:44:57.501Z,49.03
2019-01-21T12:47:48.978Z,46.53
2019-01-21T12:50:43.312Z,45.50
2019-01-21T12:53:44.544Z,45.77
2019-01-21T12:56:48.192Z,52.43
2019-01-21T12:59:56.687Z,42.33
2019-01-21T13:03:00.287Z,41.80
2019-01-21T13:05:56.103Z,46.00
2019-01-21T13:08:48.423Z,47.10
2019-01-21T13:11:35.012Z,47.37
2019-01-21T13:14:44.672Z,44.33
2019-01-21T13:17:41.314Z,41.60
2019-01-21T13:20:43.984Z,48.07
2019-01-21T13:24:07.438Z,43.63
2019-01-21T13:27:09.092Z,38.07
2019-01-21T13:30:19.322Z,46.20
2019-01-21T13:33:06.878Z,38.60
2019-01-21T13:36:15.081Z,42.87
2019-01-21T13:39:34.338Z,43.20
2019-01-21T13:42:44.694Z,42.33
2019-01-21T13:45:50.171Z,48.37
2019-01-21T13:48:46.007Z,38.70
2019-01-21T13:51:33.765Z,44.80
2019-01-21T13:54:46.986Z,46.97
2019-01-21T13:58:05.036Z,43.77
2019-01-21T14:00:43.035Z,43.37
2019-01-21T14:03:37.831Z,36.53
2019-01-21T14:06:25.279Z,46.70
2019-01-21T14:09:45.153Z,37.33
2019-01-21T14:12:47.892Z,45.23
2019-01-21T14:16:13.834Z,39.40
2019-01-21T14:19:13.896Z,47.63
2019-01-21T14:22:48.985Z,50.47
2019-01-21T14:25:47.290Z,44.10
2019-01-21T14:28:46.587Z,49.33
2019-01-21T14:31:44.943Z,46.47
2019-01-21T14:34:43.291Z,45.83
2019-01-21T14:37:40.163Z,51.63
2019-01-21T14:40:43.400Z,53.00
2019-01-21T14:43:53.208Z,58.20
2019-01-21T14:47:13.714Z,54.00
2019-01-21T14:50:05.598Z,50.67
2019-01-21T14:53:19.041Z,57.53
2019-01-21T14:56:04.574Z,58.10
2019-01-21T14:58:44.629Z,55.10
2019-01-21T15:01:56.532Z,62.90
2019-01-21T15:05:03.851Z,53.10
2019-01-21T15:07:48.798Z,65.00
2019-01-21T15:11:09.616Z,64.13
2019-01-21T15:14:00.860Z,61.07
2019-01-21T15:17:01.780Z,67.77
2019-01-21T15:20:11.186Z,62.87
2019-01-21T15:23:28.446Z,62.53
2019-01-21T15:26:53.668Z,59.87
2019-01-21T15:29:54.702Z,58.90
2019-01-21T15:33:17.082Z,63.00
2019-01-21T15:36:16.147Z,62.83
2019-01-21T15:39:14.600Z,64.27
2019-01-21T15:42:32.211Z,64.13
2019-01-21T15:45:50.783Z,58.83
2019-01-21T15:48:51.446Z,61.57
2019-01-21T15:52:14.979Z,64.90
2019-01-21T15:55:13.603Z,65.90
2019-01-21T15:58:29.547Z,64.63
2019-01-21T16:01:56.143Z,62.30
2019-01-21T16:04:46.491Z,69.50
2019-01-21T16:07:47.720Z,57.57
2019-01-21T16:10:54.262Z,61.90
2019-01-21T16:13:51.187Z,64.03
2019-01-21T16:17:01.330Z,59.40
2019-01-21T16:19:41.041Z,63.33
2019-01-21T16:22:59.823Z,69.43
2019-01-21T16:25:37.775Z,58.07
2019-01-21T16:28:42.255Z,59.60
2019-01-21T16:31:32.953Z,56.70
2019-01-21T16:34:43.146Z,71.20
2019-01-21T16:37:53.994Z,61.27
2019-01-21T16:41:25.042Z,77.43
2019-01-21T16:43:56.036Z,70.67
2019-01-21T16:46:28.170Z,72.03
2019-01-21T16:48:58.434Z,72.97
2019-01-21T16:51:29.699Z,67.13
2019-01-21T16:54:01.293Z,61.90
2019-01-21T16:56:32.705Z,57.50
2019-01-21T16:59:04.620Z,64.03
2019-01-21T17:01:37.480Z,61.80
2019-01-21T17:04:09.590Z,65.13
2019-01-21T17:06:40.854Z,61.83
2019-01-21T17:09:12.660Z,65.07
2019-01-21T17:11:43.507Z,68.20
2019-01-21T17:14:14.595Z,71.40
2019-01-21T17:16:45.116Z,58.53
2019-01-21T17:19:15.870Z,69.30
2019-01-21T17:21:48.932Z,64.53
2019-01-21T17:24:20.525Z,67.63
2019-01-21T17:26:52.966Z,66.83
2019-01-21T17:29:24.247Z,68.77
2019-01-21T17:31:54.306Z,69.00
2019-01-21T17:34:24.161Z,70.67
2019-01-21T17:36:53.869Z,66.73
2019-01-21T17:39:23.644Z,83.37
2019-01-21T17:41:53.421Z,81.93
2019-01-21T17:44:23.606Z,80.40
2019-01-21T17:46:53.367Z,76.83
2019-01-21T17:49:25.176Z,76.90
2019-01-21T17:51:54.932Z,74.03
2019-01-21T17:54:25.831Z,73.10
2019-01-21T17:56:55.620Z,79.53
2019-01-21T17:59:37.894Z,76.70
2019-01-21T18:02:08.269Z,81.23
2019-01-21T18:04:38.191Z,72.57
2019-01-21T18:07:11.585Z,74.23
2019-01-21T18:09:41.639Z,73.80
2019-01-21T18:12:11.341Z,76.23
2019-01-21T18:14:41.512Z,77.40
2019-01-21T18:17:13.355Z,64.83
2019-01-21T18:19:43.304Z,83.27
2019-01-21T18:22:15.277Z,76.53
2019-01-21T18:24:45.051Z,82.60
2019-01-21T18:27:18.917Z,77.43
2019-01-21T18:29:48.679Z,73.63
2019-01-21T18:32:18.445Z,78.97
2019-01-21T18:34:49.237Z,75.67
2019-01-21T18:37:19.160Z,72.90
2019-01-21T18:39:52.285Z,73.37
2019-01-21T18:42:22.030Z,70.33
2019-01-21T18:44:51.670Z,73.73
2019-01-21T18:47:21.355Z,79.67
2019-01-21T18:49:51.056Z,70.27
2019-01-21T18:52:20.887Z,72.77
2019-01-21T18:54:50.797Z,74.27
2019-01-21T18:57:22.006Z,70.53
2019-01-21T18:59:51.741Z,74.70
2019-01-21T19:02:21.473Z,68.40
2019-01-21T19:04:52.307Z,75.77
2019-01-21T19:07:22.012Z,75.10
2019-01-21T19:09:51.760Z,69.63
2019-01-21T19:12:21.462Z,69.23
2019-01-21T19:14:51.231Z,78.03
2019-01-21T19:17:21.079Z,79.97
2019-01-21T19:19:51.168Z,75.07
2019-01-21T19:22:20.869Z,76.60
2019-01-21T19:24:50.642Z,77.23
2019-01-21T19:27:23.012Z,79.40
2019-01-21T19:29:52.755Z,81.43
2019-01-21T19:32:23.511Z,74.30
2019-01-21T19:34:53.266Z,75.30
2019-01-21T19:37:24.483Z,84.67
2019-01-21T19:39:54.320Z,78.50
2019-01-21T19:42:24.313Z,74.47
2019-01-21T19:44:54.053Z,82.87
2019-01-21T19:47:23.879Z,74.03
2019-01-21T19:49:56.645Z,75.30
2019-01-21T19:52:26.996Z,78.53
2019-01-21T19:54:58.642Z,75.53
2019-01-21T19:57:28.628Z,79.63
2019-01-21T19:59:58.736Z,77.97
2019-01-21T20:02:28.857Z,82.50
2019-01-21T20:05:01.944Z,80.63
2019-01-21T20:07:33.160Z,73.77
2019-01-21T20:10:02.967Z,72.87
2019-01-21T20:12:35.241Z,70.33
2019-01-21T20:15:06.507Z,79.83
2019-01-21T20:17:36.198Z,72.07
2019-01-21T20:20:09.084Z,70.93
2019-01-21T20:22:38.834Z,78.50
2019-01-21T20:25:09.782Z,85.97
2019-01-21T20:27:39.558Z,76.77
2019-01-21T20:30:11.317Z,85.63
2019-01-21T20:32:42.369Z,80.97
2019-01-21T20:35:12.566Z,70.43
2019-01-21T20:37:43.405Z,73.17
2019-01-21T20:40:16.637Z,84.67
2019-01-21T20:42:46.338Z,74.57
2019-01-21T20:45:16.377Z,71.43
2019-01-21T20:47:46.043Z,78.20
2019-01-21T20:50:21.106Z,80.00
2019-01-21T20:52:53.255Z,82.53
2019-01-21T20:55:23.144Z,91.53
2019-01-21T20:57:52.802Z,74.97
2019-01-21T21:00:24.611Z,82.37
2019-01-21T21:05:32.465Z,86.10
2019-01-21T21:08:02.863Z,80.47
2019-01-21T21:10:33.279Z,90.47
2019-01-21T21:13:03.671Z,86.60
2019-01-21T21:15:34.691Z,77.00
2019-01-21T21:18:05.344Z,82.53
2019-01-21T21:20:35.713Z,85.90
2019-01-21T21:23:05.916Z,84.70
2019-01-21T21:25:36.220Z,85.20
2019-01-21T21:28:06.938Z,81.37
2019-01-21T21:30:37.152Z,95.67
2019-01-21T21:33:07.853Z,81.00
2019-01-21T21:35:38.004Z,88.80
2019-01-21T21:38:08.943Z,80.43
2019-01-21T21:40:39.047Z,85.47
2019-01-21T21:43:09.269Z,81.03
2019-01-21T21:45:39.811Z,88.73
2019-01-21T21:48:10.016Z,85.03
2019-01-21T21:50:40.240Z,80.27
2019-01-21T21:53:10.407Z,76.07
2019-01-21T21:55:40.466Z,88.27
2019-01-21T21:58:10.575Z,83.93
2019-01-21T22:00:40.671Z,67.73
2019-01-21T22:03:10.695Z,76.40
2019-01-21T22:05:40.757Z,82.50
2019-01-21T22:08:10.839Z,76.90
2019-01-21T22:10:40.888Z,83.17
2019-01-21T22:13:11.168Z,79.73
2019-01-21T22:15:41.697Z,77.80
2019-01-21T22:18:11.715Z,81.47
2019-01-21T22:20:41.750Z,75.17
2019-01-21T22:23:11.771Z,74.67
2019-01-21T22:25:41.717Z,74.70
2019-01-21T22:28:11.755Z,78.63
2019-01-21T22:30:41.538Z,77.93
2019-01-21T22:33:11.218Z,66.60
2019-01-21T22:35:40.872Z,80.00
2019-01-21T22:38:10.636Z,78.80
2019-01-21T22:40:40.379Z,68.50
2019-01-21T22:43:10.051Z,73.00
2019-01-21T22:45:39.745Z,69.03
2019-01-21T22:48:09.492Z,70.97
2019-01-21T22:50:39.114Z,68.63
2019-01-21T22:53:08.840Z,81.17
2019-01-21T22:55:38.472Z,74.47
2019-01-21T22:58:08.690Z,81.90
2019-01-21T23:00:57.054Z,71.47
2019-01-21T23:03:28.143Z,82.53
2019-01-21T23:05:57.804Z,70.17
2019-01-21T23:08:29.256Z,81.67
2019-01-21T23:10:58.953Z,69.63
2019-01-21T23:13:28.581Z,76.00
2019-01-21T23:15:58.319Z,72.33
2019-01-21T23:18:28.011Z,79.20
2019-01-21T23:20:57.750Z,69.53
2019-01-21T23:23:27.376Z,70.90
2019-01-21T23:25:57.027Z,71.00
2019-01-21T23:28:26.735Z,77.50
2019-01-21T23:30:56.436Z,69.53
2019-01-21T23:33:26.079Z,72.17
2019-01-21T23:35:55.778Z,75.07
2019-01-21T23:38:25.875Z,87.40
2019-01-21T23:40:55.570Z,89.77
2019-01-21T23:43:25.275Z,86.83
2019-01-21T23:45:55.104Z,86.20
2019-01-21T23:48:24.774Z,85.87
2019-01-21T23:50:54.455Z,94.37
2019-01-21T23:53:24.242Z,84.47
2019-01-21T23:55:53.871Z,76.67
2019-01-21T23:58:23.810Z,82.97
